sensor_id;sensor_type;location;lat;lon;timestamp;temperature;humidity
66422;DHT22;53228;51.380;0.098;2024-01-27T00:01:11;5.60;99.90
66422;DHT22;53228;51.380;0.098;2024-01-27T00:03:39;5.60;99.90
66422;DHT22;53228;51.380;0.098;2024-01-27T00:06:07;5.60;99.90
66422;DHT22;53228;51.380;0.098;2024-01-27T00:08:34;5.70;99.90
66422;DHT22;53228;51.380;0.098;2024-01-27T00:11:02;5.70;99.90
66422;DHT22;53228;51.380;0.098;2024-01-27T00:13:30;5.70;99.90
66422;DHT22;53228;51.380;0.098;2024-01-27T00:15:57;5.70;99.90
66422;DHT22;53228;51.380;0.098;2024-01-27T00:18:25;5.80;99.90
66422;DHT22;53228;51.380;0.098;2024-01-27T00:20:53;5.80;99.90
66422;DHT22;53228;51.380;0.098;2024-01-27T00:23:21;5.80;99.90
66422;DHT22;53228;51.380;0.098;2024-01-27T00:25:51;5.80;99.90
66422;DHT22;53228;51.380;0.098;2024-01-27T00:28:18;5.80;99.90
66422;DHT22;53228;51.380;0.098;2024-01-27T00:30:46;5.80;99.90
66422;DHT22;53228;51.380;0.098;2024-01-27T00:33:14;5.70;99.90
66422;DHT22;53228;51.380;0.098;2024-01-27T00:35:42;5.70;99.90
66422;DHT22;53228;51.380;0.098;2024-01-27T00:38:10;5.70;99.90
66422;DHT22;53228;51.380;0.098;2024-01-27T00:40:38;5.70;99.90
66422;DHT22;53228;51.380;0.098;2024-01-27T00:43:06;5.70;99.90
66422;DHT22;53228;51.380;0.098;2024-01-27T00:45:33;5.70;99.90
66422;DHT22;53228;51.380;0.098;2024-01-27T00:48:01;5.60;99.90
66422;DHT22;53228;51.380;0.098;2024-01-27T00:50:29;5.60;99.90
66422;DHT22;53228;51.380;0.098;2024-01-27T00:52:57;5.60;99.90
66422;DHT22;53228;51.380;0.098;2024-01-27T00:55:26;5.50;99.90
66422;DHT22;53228;51.380;0.098;2024-01-27T00:57:53;5.50;99.90
66422;DHT22;53228;51.380;0.098;2024-01-27T01:00:21;5.50;99.90
66422;DHT22;53228;51.380;0.098;2024-01-27T01:02:49;5.50;99.90
66422;DHT22;53228;51.380;0.098;2024-01-27T01:05:16;5.40;99.90
66422;DHT22;53228;51.380;0.098;2024-01-27T01:07:44;5.40;99.90
66422;DHT22;53228;51.380;0.098;2024-01-27T01:10:12;5.40;99.90
66422;DHT22;53228;51.380;0.098;2024-01-27T01:12:40;5.40;99.90
66422;DHT22;53228;51.380;0.098;2024-01-27T01:15:08;5.40;99.90
66422;DHT22;53228;51.380;0.098;2024-01-27T01:17:35;5.40;99.90
66422;DHT22;53228;51.380;0.098;2024-01-27T01:20:04;5.40;99.90
66422;DHT22;53228;51.380;0.098;2024-01-27T01:22:32;5.40;99.90
66422;DHT22;53228;51.380;0.098;2024-01-27T01:24:59;5.40;99.90
66422;DHT22;53228;51.380;0.098;2024-01-27T01:27:27;5.40;99.90
66422;DHT22;53228;51.380;0.098;2024-01-27T01:29:55;5.40;99.90
66422;DHT22;53228;51.380;0.098;2024-01-27T01:32:22;5.40;99.90
66422;DHT22;53228;51.380;0.098;2024-01-27T01:34:51;5.40;99.90
66422;DHT22;53228;51.380;0.098;2024-01-27T01:37:18;5.50;99.90
66422;DHT22;53228;51.380;0.098;2024-01-27T01:39:46;5.50;99.90
66422;DHT22;53228;51.380;0.098;2024-01-27T01:42:14;5.50;99.90
66422;DHT22;53228;51.380;0.098;2024-01-27T01:44:41;5.50;99.90
66422;DHT22;53228;51.380;0.098;2024-01-27T01:47:09;5.50;99.90
66422;DHT22;53228;51.380;0.098;2024-01-27T01:49:37;5.50;99.90
66422;DHT22;53228;51.380;0.098;2024-01-27T01:52:05;5.50;99.90
66422;DHT22;53228;51.380;0.098;2024-01-27T01:54:33;5.50;99.90
66422;DHT22;53228;51.380;0.098;2024-01-27T01:57:02;5.50;99.90
66422;DHT22;53228;51.380;0.098;2024-01-27T01:59:30;5.50;99.90
66422;DHT22;53228;51.380;0.098;2024-01-27T02:01:58;5.60;99.90
66422;DHT22;53228;51.380;0.098;2024-01-27T02:04:26;5.60;99.90
66422;DHT22;53228;51.380;0.098;2024-01-27T02:06:53;5.50;99.90
66422;DHT22;53228;51.380;0.098;2024-01-27T02:09:21;5.60;99.90
66422;DHT22;53228;51.380;0.098;2024-01-27T02:11:49;5.60;99.90
66422;DHT22;53228;51.380;0.098;2024-01-27T02:14:17;5.60;99.90
66422;DHT22;53228;51.380;0.098;2024-01-27T02:16:45;5.60;99.90
66422;DHT22;53228;51.380;0.098;2024-01-27T02:19:12;5.60;99.90
66422;DHT22;53228;51.380;0.098;2024-01-27T02:21:40;5.60;99.90
66422;DHT22;53228;51.380;0.098;2024-01-27T02:24:08;5.60;99.90
66422;DHT22;53228;51.380;0.098;2024-01-27T02:26:37;5.60;99.90
66422;DHT22;53228;51.380;0.098;2024-01-27T02:29:05;5.60;99.90
66422;DHT22;53228;51.380;0.098;2024-01-27T02:31:32;5.60;99.90
66422;DHT22;53228;51.380;0.098;2024-01-27T02:34:00;5.60;99.90
66422;DHT22;53228;51.380;0.098;2024-01-27T02:36:28;5.60;99.90
66422;DHT22;53228;51.380;0.098;2024-01-27T02:38:56;5.60;99.90
66422;DHT22;53228;51.380;0.098;2024-01-27T02:41:24;5.60;99.90
66422;DHT22;53228;51.380;0.098;2024-01-27T02:43:52;5.60;99.90
66422;DHT22;53228;51.380;0.098;2024-01-27T02:46:20;5.60;99.90
66422;DHT22;53228;51.380;0.098;2024-01-27T02:48:47;5.70;99.90
66422;DHT22;53228;51.380;0.098;2024-01-27T02:51:19;5.70;99.90
66422;DHT22;53228;51.380;0.098;2024-01-27T02:53:48;5.70;99.90
66422;DHT22;53228;51.380;0.098;2024-01-27T02:58:53;5.70;99.90
66422;DHT22;53228;51.380;0.098;2024-01-27T03:01:21;5.70;99.90
66422;DHT22;53228;51.380;0.098;2024-01-27T03:03:49;5.70;99.90
66422;DHT22;53228;51.380;0.098;2024-01-27T03:06:17;5.70;99.90
66422;DHT22;53228;51.380;0.098;2024-01-27T03:08:45;5.70;99.90
66422;DHT22;53228;51.380;0.098;2024-01-27T03:11:12;5.70;99.90
66422;DHT22;53228;51.380;0.098;2024-01-27T03:13:40;5.70;99.90
66422;DHT22;53228;51.380;0.098;2024-01-27T03:16:12;7.00;99.90
66422;DHT22;53228;51.380;0.098;2024-01-27T03:18:40;5.70;99.90
66422;DHT22;53228;51.380;0.098;2024-01-27T03:21:08;5.60;99.90
66422;DHT22;53228;51.380;0.098;2024-01-27T03:23:36;5.60;99.90
66422;DHT22;53228;51.380;0.098;2024-01-27T03:26:04;5.60;99.90
66422;DHT22;53228;51.380;0.098;2024-01-27T03:28:31;5.60;99.90
66422;DHT22;53228;51.380;0.098;2024-01-27T03:30:59;5.60;99.90
66422;DHT22;53228;51.380;0.098;2024-01-27T03:33:27;5.60;99.90
66422;DHT22;53228;51.380;0.098;2024-01-27T03:35:57;5.60;99.90
66422;DHT22;53228;51.380;0.098;2024-01-27T03:38:25;5.60;99.90
66422;DHT22;53228;51.380;0.098;2024-01-27T03:40:52;5.60;99.90
66422;DHT22;53228;51.380;0.098;2024-01-27T03:43:21;5.60;99.90
66422;DHT22;53228;51.380;0.098;2024-01-27T03:45:48;5.50;99.90
66422;DHT22;53228;51.380;0.098;2024-01-27T03:48:16;5.40;99.90
66422;DHT22;53228;51.380;0.098;2024-01-27T03:50:44;5.30;99.90
66422;DHT22;53228;51.380;0.098;2024-01-27T03:53:12;5.20;99.90
66422;DHT22;53228;51.380;0.098;2024-01-27T03:55:39;5.20;99.90
66422;DHT22;53228;51.380;0.098;2024-01-27T03:58:07;5.10;99.90
66422;DHT22;53228;51.380;0.098;2024-01-27T04:00:35;5.10;99.90
66422;DHT22;53228;51.380;0.098;2024-01-27T04:03:03;5.00;99.90
66422;DHT22;53228;51.380;0.098;2024-01-27T04:05:31;5.00;99.90
66422;DHT22;53228;51.380;0.098;2024-01-27T04:07:58;5.00;99.90
66422;DHT22;53228;51.380;0.098;2024-01-27T04:10:26;5.00;99.90
66422;DHT22;53228;51.380;0.098;2024-01-27T04:12:54;5.00;99.90
66422;DHT22;53228;51.380;0.098;2024-01-27T04:15:22;5.00;99.90
66422;DHT22;53228;51.380;0.098;2024-01-27T04:17:49;5.00;99.90
66422;DHT22;53228;51.380;0.098;2024-01-27T04:20:17;4.90;99.90
66422;DHT22;53228;51.380;0.098;2024-01-27T04:22:44;4.90;99.90
66422;DHT22;53228;51.380;0.098;2024-01-27T04:25:12;5.00;99.90
66422;DHT22;53228;51.380;0.098;2024-01-27T04:27:41;5.00;99.90
66422;DHT22;53228;51.380;0.098;2024-01-27T04:30:11;5.00;99.90
66422;DHT22;53228;51.380;0.098;2024-01-27T04:32:40;5.00;99.90
66422;DHT22;53228;51.380;0.098;2024-01-27T04:35:11;5.00;99.90
66422;DHT22;53228;51.380;0.098;2024-01-27T04:37:39;5.00;99.90
66422;DHT22;53228;51.380;0.098;2024-01-27T04:40:07;5.00;99.90
66422;DHT22;53228;51.380;0.098;2024-01-27T04:42:37;5.00;99.90
66422;DHT22;53228;51.380;0.098;2024-01-27T04:45:07;5.00;99.90
66422;DHT22;53228;51.380;0.098;2024-01-27T04:47:35;5.00;99.90
66422;DHT22;53228;51.380;0.098;2024-01-27T04:50:03;5.00;99.90
66422;DHT22;53228;51.380;0.098;2024-01-27T04:52:31;5.00;99.90
66422;DHT22;53228;51.380;0.098;2024-01-27T04:54:59;5.00;99.90
66422;DHT22;53228;51.380;0.098;2024-01-27T04:57:27;5.00;99.90
66422;DHT22;53228;51.380;0.098;2024-01-27T04:59:55;5.00;99.90
66422;DHT22;53228;51.380;0.098;2024-01-27T05:02:22;5.10;99.90
66422;DHT22;53228;51.380;0.098;2024-01-27T05:04:50;5.10;99.90
66422;DHT22;53228;51.380;0.098;2024-01-27T05:07:18;5.10;99.90
66422;DHT22;53228;51.380;0.098;2024-01-27T05:09:45;5.10;99.90
66422;DHT22;53228;51.380;0.098;2024-01-27T05:12:13;5.20;99.90
66422;DHT22;53228;51.380;0.098;2024-01-27T05:14:44;5.20;99.90
66422;DHT22;53228;51.380;0.098;2024-01-27T05:17:13;5.20;99.90
66422;DHT22;53228;51.380;0.098;2024-01-27T05:19:40;5.20;99.90
66422;DHT22;53228;51.380;0.098;2024-01-27T05:22:08;5.20;99.90
66422;DHT22;53228;51.380;0.098;2024-01-27T05:24:36;5.20;99.90
66422;DHT22;53228;51.380;0.098;2024-01-27T05:27:03;5.30;99.90
66422;DHT22;53228;51.380;0.098;2024-01-27T05:29:31;5.30;99.90
66422;DHT22;53228;51.380;0.098;2024-01-27T05:31:59;5.30;99.90
66422;DHT22;53228;51.380;0.098;2024-01-27T05:34:27;5.30;99.90
66422;DHT22;53228;51.380;0.098;2024-01-27T05:36:55;5.30;99.90
66422;DHT22;53228;51.380;0.098;2024-01-27T05:39:22;5.30;99.90
66422;DHT22;53228;51.380;0.098;2024-01-27T05:41:50;5.30;99.90
66422;DHT22;53228;51.380;0.098;2024-01-27T05:44:18;5.40;99.90
66422;DHT22;53228;51.380;0.098;2024-01-27T05:46:45;5.40;99.90
66422;DHT22;53228;51.380;0.098;2024-01-27T05:49:13;5.40;99.90
66422;DHT22;53228;51.380;0.098;2024-01-27T05:51:41;5.40;99.90
66422;DHT22;53228;51.380;0.098;2024-01-27T05:54:09;5.40;99.90
66422;DHT22;53228;51.380;0.098;2024-01-27T05:56:37;5.40;99.90
66422;DHT22;53228;51.380;0.098;2024-01-27T05:59:05;5.40;99.90
66422;DHT22;53228;51.380;0.098;2024-01-27T06:01:33;5.40;99.90
66422;DHT22;53228;51.380;0.098;2024-01-27T06:04:01;5.40;99.90
66422;DHT22;53228;51.380;0.098;2024-01-27T06:06:29;5.40;99.90
66422;DHT22;53228;51.380;0.098;2024-01-27T06:08:57;5.50;99.90
66422;DHT22;53228;51.380;0.098;2024-01-27T06:11:25;5.50;99.90
66422;DHT22;53228;51.380;0.098;2024-01-27T06:13:53;5.50;99.90
66422;DHT22;53228;51.380;0.098;2024-01-27T06:16:21;5.50;99.90
66422;DHT22;53228;51.380;0.098;2024-01-27T06:18:49;5.50;99.90
66422;DHT22;53228;51.380;0.098;2024-01-27T06:21:16;5.50;99.90
66422;DHT22;53228;51.380;0.098;2024-01-27T06:23:44;5.50;99.90
66422;DHT22;53228;51.380;0.098;2024-01-27T06:26:13;5.50;99.90
66422;DHT22;53228;51.380;0.098;2024-01-27T06:28:41;5.50;99.90
66422;DHT22;53228;51.380;0.098;2024-01-27T06:31:09;5.50;99.90
66422;DHT22;53228;51.380;0.098;2024-01-27T06:33:37;5.50;99.90
66422;DHT22;53228;51.380;0.098;2024-01-27T06:36:05;5.60;99.90
66422;DHT22;53228;51.380;0.098;2024-01-27T06:38:33;5.60;99.90
66422;DHT22;53228;51.380;0.098;2024-01-27T06:41:01;5.60;99.90
66422;DHT22;53228;51.380;0.098;2024-01-27T06:43:29;5.60;99.90
66422;DHT22;53228;51.380;0.098;2024-01-27T06:45:57;5.60;99.90
66422;DHT22;53228;51.380;0.098;2024-01-27T06:48:25;5.60;99.90
66422;DHT22;53228;51.380;0.098;2024-01-27T06:50:53;5.60;99.90
66422;DHT22;53228;51.380;0.098;2024-01-27T06:53:21;5.60;99.90
66422;DHT22;53228;51.380;0.098;2024-01-27T06:55:49;5.60;99.90
66422;DHT22;53228;51.380;0.098;2024-01-27T06:58:17;5.60;99.90
66422;DHT22;53228;51.380;0.098;2024-01-27T07:00:45;5.60;99.90
66422;DHT22;53228;51.380;0.098;2024-01-27T07:03:13;5.60;99.90
66422;DHT22;53228;51.380;0.098;2024-01-27T07:05:41;5.60;99.90
66422;DHT22;53228;51.380;0.098;2024-01-27T07:08:09;5.60;99.90
66422;DHT22;53228;51.380;0.098;2024-01-27T07:10:37;5.60;99.90
66422;DHT22;53228;51.380;0.098;2024-01-27T07:13:05;5.60;99.90
66422;DHT22;53228;51.380;0.098;2024-01-27T07:15:34;5.60;99.90
66422;DHT22;53228;51.380;0.098;2024-01-27T07:18:01;5.60;99.90
66422;DHT22;53228;51.380;0.098;2024-01-27T07:20:29;5.60;99.90
66422;DHT22;53228;51.380;0.098;2024-01-27T07:22:57;5.60;99.90
66422;DHT22;53228;51.380;0.098;2024-01-27T07:25:25;5.70;99.90
66422;DHT22;53228;51.380;0.098;2024-01-27T07:27:52;5.70;99.90
66422;DHT22;53228;51.380;0.098;2024-01-27T07:30:20;5.60;99.90
66422;DHT22;53228;51.380;0.098;2024-01-27T07:32:48;5.70;99.90
66422;DHT22;53228;51.380;0.098;2024-01-27T07:35:16;5.70;99.90
66422;DHT22;53228;51.380;0.098;2024-01-27T07:37:43;5.70;99.90
66422;DHT22;53228;51.380;0.098;2024-01-27T07:40:11;5.70;99.90
66422;DHT22;53228;51.380;0.098;2024-01-27T07:42:39;5.70;99.90
66422;DHT22;53228;51.380;0.098;2024-01-27T07:45:08;4.60;99.90
66422;DHT22;53228;51.380;0.098;2024-01-27T07:47:36;5.70;99.90
66422;DHT22;53228;51.380;0.098;2024-01-27T07:50:04;5.70;99.90
66422;DHT22;53228;51.380;0.098;2024-01-27T07:52:32;5.70;99.90
66422;DHT22;53228;51.380;0.098;2024-01-27T07:55:00;5.70;99.90
66422;DHT22;53228;51.380;0.098;2024-01-27T07:57:28;5.70;99.90
66422;DHT22;53228;51.380;0.098;2024-01-27T07:59:56;5.70;99.90
66422;DHT22;53228;51.380;0.098;2024-01-27T08:02:23;5.70;99.90
66422;DHT22;53228;51.380;0.098;2024-01-27T08:04:51;5.70;99.90
66422;DHT22;53228;51.380;0.098;2024-01-27T08:07:18;5.70;99.90
66422;DHT22;53228;51.380;0.098;2024-01-27T08:09:46;5.80;99.90
66422;DHT22;53228;51.380;0.098;2024-01-27T08:12:14;5.80;99.90
66422;DHT22;53228;51.380;0.098;2024-01-27T08:14:41;5.80;99.90
66422;DHT22;53228;51.380;0.098;2024-01-27T08:17:10;5.70;99.90
66422;DHT22;53228;51.380;0.098;2024-01-27T08:19:37;5.80;99.90
66422;DHT22;53228;51.380;0.098;2024-01-27T08:22:05;5.80;99.90
66422;DHT22;53228;51.380;0.098;2024-01-27T08:24:33;5.80;99.90
66422;DHT22;53228;51.380;0.098;2024-01-27T08:27:00;5.80;99.90
66422;DHT22;53228;51.380;0.098;2024-01-27T08:29:29;5.80;99.90
66422;DHT22;53228;51.380;0.098;2024-01-27T08:31:56;5.90;99.90
66422;DHT22;53228;51.380;0.098;2024-01-27T08:34:24;5.90;99.90
66422;DHT22;53228;51.380;0.098;2024-01-27T08:36:52;5.90;99.90
66422;DHT22;53228;51.380;0.098;2024-01-27T08:39:20;5.90;99.90
66422;DHT22;53228;51.380;0.098;2024-01-27T08:41:48;5.90;99.90
66422;DHT22;53228;51.380;0.098;2024-01-27T08:44:15;5.90;99.90
66422;DHT22;53228;51.380;0.098;2024-01-27T08:46:43;5.90;99.90
66422;DHT22;53228;51.380;0.098;2024-01-27T08:49:10;5.90;99.90
66422;DHT22;53228;51.380;0.098;2024-01-27T08:51:38;6.00;99.90
66422;DHT22;53228;51.380;0.098;2024-01-27T08:54:06;6.00;99.90
66422;DHT22;53228;51.380;0.098;2024-01-27T08:56:38;6.00;99.90
66422;DHT22;53228;51.380;0.098;2024-01-27T08:59:06;6.00;99.90
66422;DHT22;53228;51.380;0.098;2024-01-27T09:01:34;6.00;99.90
66422;DHT22;53228;51.380;0.098;2024-01-27T09:04:01;6.00;99.90
66422;DHT22;53228;51.380;0.098;2024-01-27T09:06:29;6.00;99.90
66422;DHT22;53228;51.380;0.098;2024-01-27T09:08:58;6.00;99.90
66422;DHT22;53228;51.380;0.098;2024-01-27T09:11:26;6.00;99.90
66422;DHT22;53228;51.380;0.098;2024-01-27T09:14:01;6.00;99.90
66422;DHT22;53228;51.380;0.098;2024-01-27T09:16:29;6.00;99.90
66422;DHT22;53228;51.380;0.098;2024-01-27T09:18:57;6.00;99.90
66422;DHT22;53228;51.380;0.098;2024-01-27T09:21:25;6.10;99.90
66422;DHT22;53228;51.380;0.098;2024-01-27T09:23:56;6.10;99.90
66422;DHT22;53228;51.380;0.098;2024-01-27T09:26:25;6.10;99.90
66422;DHT22;53228;51.380;0.098;2024-01-27T09:28:52;6.20;99.90
66422;DHT22;53228;51.380;0.098;2024-01-27T09:31:23;6.20;99.90
66422;DHT22;53228;51.380;0.098;2024-01-27T09:33:52;6.20;99.90
66422;DHT22;53228;51.380;0.098;2024-01-27T09:36:21;6.20;99.90
66422;DHT22;53228;51.380;0.098;2024-01-27T09:38:49;6.30;99.90
66422;DHT22;53228;51.380;0.098;2024-01-27T09:41:17;6.40;99.90
66422;DHT22;53228;51.380;0.098;2024-01-27T09:43:46;6.40;99.90
66422;DHT22;53228;51.380;0.098;2024-01-27T09:46:15;6.40;99.90
66422;DHT22;53228;51.380;0.098;2024-01-27T09:48:43;6.50;99.90
66422;DHT22;53228;51.380;0.098;2024-01-27T09:51:12;6.50;99.90
66422;DHT22;53228;51.380;0.098;2024-01-27T09:53:40;6.50;99.90
66422;DHT22;53228;51.380;0.098;2024-01-27T09:56:09;6.60;99.90
66422;DHT22;53228;51.380;0.098;2024-01-27T09:58:37;6.70;99.90
66422;DHT22;53228;51.380;0.098;2024-01-27T10:01:06;6.70;99.90
66422;DHT22;53228;51.380;0.098;2024-01-27T10:03:36;6.80;99.90
66422;DHT22;53228;51.380;0.098;2024-01-27T10:06:08;6.90;99.90
66422;DHT22;53228;51.380;0.098;2024-01-27T10:08:37;6.90;99.90
66422;DHT22;53228;51.380;0.098;2024-01-27T10:11:07;7.00;99.90
66422;DHT22;53228;51.380;0.098;2024-01-27T10:13:36;7.00;99.90
66422;DHT22;53228;51.380;0.098;2024-01-27T10:16:08;7.10;99.90
66422;DHT22;53228;51.380;0.098;2024-01-27T10:18:36;7.10;99.90
66422;DHT22;53228;51.380;0.098;2024-01-27T10:21:14;7.10;99.90
66422;DHT22;53228;51.380;0.098;2024-01-27T10:23:42;7.10;99.90
66422;DHT22;53228;51.380;0.098;2024-01-27T10:26:10;7.20;99.90
66422;DHT22;53228;51.380;0.098;2024-01-27T10:28:38;7.20;99.90
66422;DHT22;53228;51.380;0.098;2024-01-27T10:31:12;7.30;99.90
66422;DHT22;53228;51.380;0.098;2024-01-27T10:33:51;7.40;99.90
66422;DHT22;53228;51.380;0.098;2024-01-27T10:36:20;7.50;99.90
66422;DHT22;53228;51.380;0.098;2024-01-27T10:38:48;8.30;99.90
66422;DHT22;53228;51.380;0.098;2024-01-27T10:41:22;7.70;99.90
66422;DHT22;53228;51.380;0.098;2024-01-27T10:43:56;7.80;99.90
66422;DHT22;53228;51.380;0.098;2024-01-27T10:46:25;7.90;99.90
66422;DHT22;53228;51.380;0.098;2024-01-27T10:48:53;7.90;99.90
66422;DHT22;53228;51.380;0.098;2024-01-27T10:51:30;8.00;99.90
66422;DHT22;53228;51.380;0.098;2024-01-27T10:54:03;8.00;99.90
66422;DHT22;53228;51.380;0.098;2024-01-27T10:56:32;8.00;99.90
66422;DHT22;53228;51.380;0.098;2024-01-27T10:59:09;8.10;99.90
66422;DHT22;53228;51.380;0.098;2024-01-27T11:01:38;8.10;99.90
66422;DHT22;53228;51.380;0.098;2024-01-27T11:04:08;8.10;99.90
66422;DHT22;53228;51.380;0.098;2024-01-27T11:06:38;8.20;99.90
66422;DHT22;53228;51.380;0.098;2024-01-27T11:09:08;7.00;99.90
66422;DHT22;53228;51.380;0.098;2024-01-27T11:11:36;8.30;99.90
66422;DHT22;53228;51.380;0.098;2024-01-27T11:14:05;9.20;99.90
66422;DHT22;53228;51.380;0.098;2024-01-27T11:16:34;8.50;99.90
66422;DHT22;53228;51.380;0.098;2024-01-27T11:19:02;8.60;99.90
66422;DHT22;53228;51.380;0.098;2024-01-27T11:21:30;8.60;99.90
66422;DHT22;53228;51.380;0.098;2024-01-27T11:23:57;8.70;99.90
66422;DHT22;53228;51.380;0.098;2024-01-27T11:26:25;8.70;99.90
66422;DHT22;53228;51.380;0.098;2024-01-27T11:28:53;8.80;99.90
66422;DHT22;53228;51.380;0.098;2024-01-27T11:31:21;8.80;99.90
66422;DHT22;53228;51.380;0.098;2024-01-27T11:33:50;8.80;99.90
66422;DHT22;53228;51.380;0.098;2024-01-27T11:36:24;8.80;99.90
66422;DHT22;53228;51.380;0.098;2024-01-27T11:38:53;8.80;99.90
66422;DHT22;53228;51.380;0.098;2024-01-27T11:41:29;8.90;99.90
66422;DHT22;53228;51.380;0.098;2024-01-27T11:43:58;8.90;99.90
66422;DHT22;53228;51.380;0.098;2024-01-27T11:46:27;9.00;99.90
66422;DHT22;53228;51.380;0.098;2024-01-27T11:48:55;9.10;99.90
66422;DHT22;53228;51.380;0.098;2024-01-27T11:51:24;9.10;99.90
66422;DHT22;53228;51.380;0.098;2024-01-27T11:53:52;9.10;99.90
66422;DHT22;53228;51.380;0.098;2024-01-27T11:56:20;9.00;99.90
66422;DHT22;53228;51.380;0.098;2024-01-27T11:58:49;8.90;99.90
66422;DHT22;53228;51.380;0.098;2024-01-27T12:01:18;8.80;99.90
66422;DHT22;53228;51.380;0.098;2024-01-27T12:03:46;8.60;99.90
66422;DHT22;53228;51.380;0.098;2024-01-27T12:06:14;8.50;99.90
66422;DHT22;53228;51.380;0.098;2024-01-27T12:08:43;8.40;99.90
66422;DHT22;53228;51.380;0.098;2024-01-27T12:11:17;8.30;99.90
66422;DHT22;53228;51.380;0.098;2024-01-27T12:13:51;8.20;99.90
66422;DHT22;53228;51.380;0.098;2024-01-27T12:16:23;8.20;99.90
66422;DHT22;53228;51.380;0.098;2024-01-27T12:18:54;8.20;99.90
66422;DHT22;53228;51.380;0.098;2024-01-27T12:21:22;8.10;99.90
66422;DHT22;53228;51.380;0.098;2024-01-27T12:23:52;8.10;99.90
66422;DHT22;53228;51.380;0.098;2024-01-27T12:26:21;8.10;99.90
66422;DHT22;53228;51.380;0.098;2024-01-27T12:28:50;8.10;99.90
66422;DHT22;53228;51.380;0.098;2024-01-27T12:31:18;8.20;99.90
66422;DHT22;53228;51.380;0.098;2024-01-27T12:33:53;8.20;99.90
66422;DHT22;53228;51.380;0.098;2024-01-27T12:36:22;8.20;99.90
66422;DHT22;53228;51.380;0.098;2024-01-27T12:39:01;8.20;99.90
66422;DHT22;53228;51.380;0.098;2024-01-27T12:41:29;8.30;99.90
66422;DHT22;53228;51.380;0.098;2024-01-27T12:43:58;8.20;99.90
66422;DHT22;53228;51.380;0.098;2024-01-27T12:46:25;8.20;99.90
66422;DHT22;53228;51.380;0.098;2024-01-27T12:48:53;8.20;99.90
66422;DHT22;53228;51.380;0.098;2024-01-27T12:51:21;8.30;99.90
66422;DHT22;53228;51.380;0.098;2024-01-27T12:53:49;8.30;99.90
66422;DHT22;53228;51.380;0.098;2024-01-27T12:56:17;8.40;99.90
66422;DHT22;53228;51.380;0.098;2024-01-27T12:58:45;8.40;99.90
66422;DHT22;53228;51.380;0.098;2024-01-27T13:01:12;8.40;99.90
66422;DHT22;53228;51.380;0.098;2024-01-27T13:03:40;8.40;99.90
66422;DHT22;53228;51.380;0.098;2024-01-27T13:06:12;8.40;99.90
66422;DHT22;53228;51.380;0.098;2024-01-27T13:08:41;8.40;99.90
66422;DHT22;53228;51.380;0.098;2024-01-27T13:11:09;8.50;99.90
66422;DHT22;53228;51.380;0.098;2024-01-27T13:13:37;8.40;99.90
66422;DHT22;53228;51.380;0.098;2024-01-27T13:16:05;8.40;99.90
66422;DHT22;53228;51.380;0.098;2024-01-27T13:18:33;8.40;99.90
66422;DHT22;53228;51.380;0.098;2024-01-27T13:21:01;8.40;99.90
66422;DHT22;53228;51.380;0.098;2024-01-27T13:23:31;8.30;99.90
66422;DHT22;53228;51.380;0.098;2024-01-27T13:25:59;8.30;99.90
66422;DHT22;53228;51.380;0.098;2024-01-27T13:28:45;8.30;99.90
66422;DHT22;53228;51.380;0.098;2024-01-27T13:31:13;8.30;99.90
66422;DHT22;53228;51.380;0.098;2024-01-27T13:33:41;8.20;99.90
66422;DHT22;53228;51.380;0.098;2024-01-27T13:36:09;8.20;99.90
66422;DHT22;53228;51.380;0.098;2024-01-27T13:38:37;8.20;99.90
66422;DHT22;53228;51.380;0.098;2024-01-27T13:41:05;8.10;99.90
66422;DHT22;53228;51.380;0.098;2024-01-27T13:43:33;8.00;99.90
66422;DHT22;53228;51.380;0.098;2024-01-27T13:46:00;8.00;99.90
66422;DHT22;53228;51.380;0.098;2024-01-27T13:48:28;8.00;99.90
66422;DHT22;53228;51.380;0.098;2024-01-27T13:50:57;8.00;99.90
66422;DHT22;53228;51.380;0.098;2024-01-27T13:53:24;8.00;99.90
66422;DHT22;53228;51.380;0.098;2024-01-27T13:56:09;8.10;99.90
66422;DHT22;53228;51.380;0.098;2024-01-27T13:58:37;8.10;99.90
66422;DHT22;53228;51.380;0.098;2024-01-27T14:01:06;8.10;99.90
66422;DHT22;53228;51.380;0.098;2024-01-27T14:03:33;8.10;99.90
66422;DHT22;53228;51.380;0.098;2024-01-27T14:06:01;8.10;99.90
66422;DHT22;53228;51.380;0.098;2024-01-27T14:08:29;8.10;99.90
66422;DHT22;53228;51.380;0.098;2024-01-27T14:10:57;9.70;99.90
66422;DHT22;53228;51.380;0.098;2024-01-27T14:13:25;8.10;99.90
66422;DHT22;53228;51.380;0.098;2024-01-27T14:15:52;8.10;99.90
66422;DHT22;53228;51.380;0.098;2024-01-27T14:18:20;8.10;99.90
66422;DHT22;53228;51.380;0.098;2024-01-27T14:20:49;8.20;99.90
66422;DHT22;53228;51.380;0.098;2024-01-27T14:23:18;8.10;99.90
66422;DHT22;53228;51.380;0.098;2024-01-27T14:25:46;8.10;99.90
66422;DHT22;53228;51.380;0.098;2024-01-27T14:28:15;8.10;99.90
66422;DHT22;53228;51.380;0.098;2024-01-27T14:30:43;8.10;99.90
66422;DHT22;53228;51.380;0.098;2024-01-27T14:33:12;7.10;99.90
66422;DHT22;53228;51.380;0.098;2024-01-27T14:35:40;8.10;99.90
66422;DHT22;53228;51.380;0.098;2024-01-27T14:38:08;8.10;99.90
66422;DHT22;53228;51.380;0.098;2024-01-27T14:40:37;8.00;99.90
66422;DHT22;53228;51.380;0.098;2024-01-27T14:43:05;8.00;99.90
66422;DHT22;53228;51.380;0.098;2024-01-27T14:45:37;8.00;99.90
66422;DHT22;53228;51.380;0.098;2024-01-27T14:48:05;7.90;99.90
66422;DHT22;53228;51.380;0.098;2024-01-27T14:50:33;7.90;99.90
66422;DHT22;53228;51.380;0.098;2024-01-27T14:53:01;7.90;99.90
66422;DHT22;53228;51.380;0.098;2024-01-27T14:55:32;7.90;99.90
66422;DHT22;53228;51.380;0.098;2024-01-27T14:58:01;7.90;99.90
66422;DHT22;53228;51.380;0.098;2024-01-27T15:00:31;7.90;99.90
66422;DHT22;53228;51.380;0.098;2024-01-27T15:02:59;7.90;99.90
66422;DHT22;53228;51.380;0.098;2024-01-27T15:05:29;7.90;99.90
66422;DHT22;53228;51.380;0.098;2024-01-27T15:07:57;7.90;99.90
66422;DHT22;53228;51.380;0.098;2024-01-27T15:10:25;7.90;99.90
66422;DHT22;53228;51.380;0.098;2024-01-27T15:12:52;10.00;99.90
66422;DHT22;53228;51.380;0.098;2024-01-27T15:15:20;7.90;99.90
66422;DHT22;53228;51.380;0.098;2024-01-27T15:17:47;7.90;99.90
66422;DHT22;53228;51.380;0.098;2024-01-27T15:20:15;7.90;99.90
66422;DHT22;53228;51.380;0.098;2024-01-27T15:22:43;7.90;99.90
66422;DHT22;53228;51.380;0.098;2024-01-27T15:25:12;7.90;99.90
66422;DHT22;53228;51.380;0.098;2024-01-27T15:27:40;7.90;99.90
66422;DHT22;53228;51.380;0.098;2024-01-27T15:30:08;7.80;99.90
66422;DHT22;53228;51.380;0.098;2024-01-27T15:32:36;7.80;99.90
66422;DHT22;53228;51.380;0.098;2024-01-27T15:35:05;7.80;99.90
66422;DHT22;53228;51.380;0.098;2024-01-27T15:37:33;7.80;99.90
66422;DHT22;53228;51.380;0.098;2024-01-27T15:40:00;7.70;99.90
66422;DHT22;53228;51.380;0.098;2024-01-27T15:42:30;7.70;99.90
66422;DHT22;53228;51.380;0.098;2024-01-27T15:44:58;7.60;99.90
66422;DHT22;53228;51.380;0.098;2024-01-27T15:47:25;7.60;99.90
66422;DHT22;53228;51.380;0.098;2024-01-27T15:49:53;7.50;99.90
66422;DHT22;53228;51.380;0.098;2024-01-27T15:52:24;7.50;99.90
66422;DHT22;53228;51.380;0.098;2024-01-27T15:54:52;7.00;99.90